Irishtown, Illinois
Current Conditions -  °F | °C
As of 3:15 AM on Monday 24 Nov 2014 (Local Time) from KENL Reporting Station
Overcast Overcast  
Wind Chill: 55°   Ceiling: 3200
Heat Index: 55°   Visibility: 10mi
Dew Point: 51°   Wind: 17mph
Humidity: 85%   Direction: 220°SW
Pressure: 29.2"   Gusts: 24mph
Location:  38.7527°N, 89.3215°W
Report Text: KENL 240915Z AUTO 22015G21KT 10SM SCT010 BKN032 OVC046 13/11 A2920 RMK AO2 T01300106
Loading
Personal Weather Stations






























Interactive Weather Map New forecast layout! Learn more

10-Day Weather Forecast

Advertisements
Track Severe Weather on mobile